CW0617 Weather Reports


Display with metric or nautical units.
time (UTC)temp
F
wind
direction
speed
MPH
gust
MPH
rain 1hr
in
rain 24hr
in
rain mn
in
humidity
%
barometer
mb
20190425162142 53 243 6.0 6.0 0.00 0.00 0.00 84 1008.5
20190425161642 53 266 6.0 6.0 0.00 0.00 0.00 84 1008.5
20190425160642 52 221 6.0 6.0 0.00 0.00 0.00 84 1008.5
20190425155642 52 226 0.0 0.0 0.00 0.00 0.00 88 1008.5
20190425155142 52 256 0.0 0.0 0.00 0.00 0.00 88 1008.5
20190425153642 51 224 0.0 0.0 0.00 0.00 0.00 88 1008.5
20190425153142 51 236 0.0 0.0 0.00 0.00 0.00 88 1008.5
20190425152642 51 223 0.0 0.0 0.00 0.00 0.00 88 1008.5
20190425151142 51 244 0.0 0.0 0.00 0.00 0.00 88 1008.5
20190425150142 51 224 3.0 5.0 0.00 0.00 0.00 89 1008.5
20190425145641 51 230 5.0 5.0 0.00 0.00 0.00 92 1008.5
20190425145143 51 268 5.0 5.0 0.00 0.00 0.00 92 1008.5
20190425143646 50 229 5.0 5.0 0.00 0.00 0.00 92 1008.5
20190425142141 50 250 5.0 5.0 0.00 0.00 0.00 92 1008.5
20190425141142 50 221 5.0 5.0 0.00 0.00 0.00 92 1008.5
20190425140641 50 221 5.0 5.0 0.00 0.00 0.00 92 1008.5
20190425135642 50 221 6.0 6.0 0.00 0.00 0.00 83 1008.5
20190425134642 50 221 6.0 6.0 0.00 0.00 0.00 83 1008.5
20190425134142 50 223 6.0 6.0 0.00 0.00 0.00 83 1008.5
20190425131642 50 206 6.0 6.0 0.00 0.00 0.00 83 1008.5
20190425131141 50 211 6.0 6.0 0.00 0.00 0.00 83 1008.5
20190425130642 50 234 6.0 6.0 0.00 0.00 0.00 83 1008.5
20190425125142 50 217 6.0 6.0 0.00 0.00 0.00 80 1007.8
20190425124142 50 217 6.0 6.0 0.00 0.00 0.00 80 1007.8
20190425122142 50 230 6.0 6.0 0.00 0.00 0.00 80 1007.8
20190425121142 50 208 6.0 6.0 0.00 0.00 0.00 80 1007.8
20190425120142 49 222 6.0 6.0 0.00 0.00 0.00 80 1007.8
20190425115642 49 225 6.0 6.0 0.00 0.00 0.00 80 1007.8
20190425115142 49 250 6.0 6.0 0.00 0.00 0.00 80 1007.8
20190425114642 49 215 6.0 6.0 0.00 0.00 0.00 80 1007.8
20190425112641 48 227 6.0 6.0 0.00 0.00 0.00 80 1007.8
20190425111142 48 237 6.0 6.0 0.00 0.00 0.00 80 1007.8
20190425110142 48 225 6.0 6.0 0.00 0.00 0.00 80 1007.8
20190425105642 48 220 6.0 6.0 0.00 0.00 0.00 78 1007.8
20190425105142 48 226 6.0 6.0 0.00 0.00 0.00 78 1007.8
20190425104142 48 213 6.0 6.0 0.00 0.00 0.00 78 1007.8
20190425103642 48 228 6.0 6.0 0.00 0.00 0.00 78 1007.8
20190425102642 48 215 6.0 6.0 0.00 0.00 0.00 78 1007.8
20190425101642 48 200 6.0 6.0 0.00 0.00 0.00 78 1007.8
20190425100642 48 199 6.0 6.0 0.00 0.00 0.00 78 1007.8
20190425044642 52 221 9.0 9.0 0.00 0.00 0.00 69 1008.8
20190425044142 52 222 9.0 9.0 0.00 0.00 0.00 69 1008.8
20190425043142 52 216 9.0 9.0 0.00 0.00 0.00 69 1008.8
20190425042642 52 215 9.0 9.0 0.00 0.00 0.00 69 1008.8
20190425042142 53 219 9.0 9.0 0.00 0.00 0.00 69 1008.8
20190425041142 53 226 9.0 9.0 0.00 0.00 0.00 69 1008.8
20190425040141 53 244 9.0 9.0 0.00 0.00 0.00 68 1008.9
20190425035642 53 240 8.0 8.0 0.00 0.00 0.00 65 1009.1
20190425035141 54 230 8.0 8.0 0.00 0.00 0.00 65 1009.1
20190425033141 54 220 8.0 8.0 0.00 0.00 0.00 65 1009.1
20190425032641 55 231 8.0 8.0 0.00 0.00 0.00 65 1009.1
20190425032142 55 207 8.0 8.0 0.00 0.00 0.00 65 1009.1
20190425031142 55 209 8.0 8.0 0.00 0.00 0.00 65 1009.1
20190425030142 55 223 8.0 8.0 0.00 0.00 0.00 64 1009.0
20190425025641 56 219 8.0 8.0 0.00 0.00 0.00 56 1008.5
20190425025141 56 231 8.0 8.0 0.00 0.00 0.00 56 1008.5
20190425024142 56 208 8.0 8.0 0.00 0.00 0.00 56 1008.5
20190425022642 57 208 8.0 8.0 0.00 0.00 0.00 56 1008.5
20190425020641 58 210 8.0 8.0 0.00 0.00 0.00 56 1008.5
20190425020142 58 217 8.0 8.0 0.00 0.00 0.00 54 1008.5
20190425015142 58 210 8.0 8.0 0.00 0.00 0.00 47 1008.5
20190425014141 59 231 8.0 8.0 0.00 0.00 0.00 47 1008.5
20190425013641 59 224 8.0 8.0 0.00 0.00 0.00 47 1008.5
20190425012641 60 226 8.0 8.0 0.00 0.00 0.00 47 1008.5
20190425012141 60 219 8.0 8.0 0.00 0.00 0.00 47 1008.5
20190425011641 60 217 8.0 8.0 0.00 0.00 0.00 47 1008.5
20190425010641 61 221 8.0 8.0 0.00 0.00 0.00 47 1008.5
20190425005142 62 218 8.0 8.0 0.00 0.00 0.00 46 1008.5
20190425004641 62 226 8.0 8.0 0.00 0.00 0.00 46 1008.5
20190425003642 63 217 8.0 8.0 0.00 0.00 0.00 46 1008.5
20190425002641 64 207 8.0 8.0 0.00 0.00 0.00 46 1008.5
20190425002141 64 227 8.0 8.0 0.00 0.00 0.00 46 1008.5
20190425001141 64 228 8.0 8.0 0.00 0.00 0.00 46 1008.5
20190425000642 64 219 8.0 8.0 0.00 0.00 0.00 46 1008.5
20190424235641 65 236 10.0 10.0 0.00 0.00 0.00 44 1008.5
20190424235142 65 222 10.0 10.0 0.00 0.00 0.00 44 1008.5
20190424234142 65 220 10.0 10.0 0.00 0.00 0.00 44 1008.5
20190424233141 66 223 10.0 10.0 0.00 0.00 0.00 44 1008.5
20190424232641 66 242 10.0 10.0 0.00 0.00 0.00 44 1008.5
20190424232141 66 234 10.0 10.0 0.00 0.00 0.00 44 1008.5
20190424231641 67 219 10.0 10.0 0.00 0.00 0.00 44 1008.5
20190424231141 67 212 10.0 10.0 0.00 0.00 0.00 44 1008.5
20190424230142 68 239 10.0 23.0 0.00 0.00 0.00 44 1008.5
20190424225141 67 213 10.0 23.0 0.00 0.00 0.00 41 1008.8
20190424224641 67 240 10.0 23.0 0.00 0.00 0.00 41 1008.8
20190424222641 68 252 10.0 23.0 0.00 0.00 0.00 41 1008.8
20190424221641 68 238 10.0 23.0 0.00 0.00 0.00 41 1008.8
20190424221141 68 262 10.0 23.0 0.00 0.00 0.00 41 1008.8
20190424215141 69 236 15.0 29.0 0.00 0.00 0.00 43 1009.1
20190424212641 69 246 15.0 29.0 0.00 0.00 0.00 43 1009.1
20190424212142 69 206 15.0 29.0 0.00 0.00 0.00 43 1009.1
20190424210141 69 268 12.0 29.0 0.00 0.00 0.00 43 1009.3
20190424205141 69 224 10.0 28.0 0.00 0.00 0.00 43 1010.2
20190424204641 69 249 10.0 28.0 0.00 0.00 0.00 43 1010.2
20190424203142 69 245 10.0 28.0 0.00 0.00 0.00 43 1010.2
20190424202641 70 266 10.0 28.0 0.00 0.00 0.00 43 1010.2
20190424202141 70 214 10.0 28.0 0.00 0.00 0.00 43 1010.2
20190424201641 71 201 10.0 28.0 0.00 0.00 0.00 43 1010.2
20190424200141 70 209 13.0 28.0 0.00 0.00 0.00 43 1010.2
20190424195641 70 239 14.0 26.0 0.00 0.00 0.00 43 1010.5
20190424195141 70 185 14.0 26.0 0.00 0.00 0.00 43 1010.5
20190424194647 71 208 14.0 26.0 0.00 0.00 0.00 43 1010.5
20190424194141 71 241 14.0 26.0 0.00 0.00 0.00 43 1010.5
20190424193641 71 276 14.0 26.0 0.00 0.00 0.00 43 1010.5
20190424193141 71 196 14.0 26.0 0.00 0.00 0.00 43 1010.5
20190424192641 71 188 14.0 26.0 0.00 0.00 0.00 43 1010.5
20190424192141 71 203 14.0 26.0 0.00 0.00 0.00 43 1010.5
20190424191641 71 220 14.0 26.0 0.00 0.00 0.00 43 1010.5
20190424191141 71 207 14.0 26.0 0.00 0.00 0.00 43 1010.5
20190424190641 71 232 14.0 26.0 0.00 0.00 0.00 43 1010.5
20190424190141 72 221 14.0 29.0 0.00 0.00 0.00 43 1010.7
20190424185641 72 211 14.0 29.0 0.00 0.00 0.00 44 1011.9
20190424185141 71 212 14.0 29.0 0.00 0.00 0.00 44 1011.9
20190424184141 70 214 14.0 29.0 0.00 0.00 0.00 44 1011.9
20190424183141 69 208 14.0 29.0 0.00 0.00 0.00 44 1011.9
20190424181141 68 238 14.0 29.0 0.00 0.00 0.00 44 1011.9
20190424180641 68 235 14.0 29.0 0.00 0.00 0.00 44 1011.9
20190424175641 68 218 14.0 29.0 0.00 0.00 0.00 45 1012.9
20190424174141 67 206 14.0 29.0 0.00 0.00 0.00 45 1012.9
20190424173641 67 196 14.0 29.0 0.00 0.00 0.00 45 1012.9
20190424172141 67 239 14.0 29.0 0.00 0.00 0.00 45 1012.9
20190424171641 66 201 14.0 29.0 0.00 0.00 0.00 45 1012.9
20190424171141 66 204 14.0 29.0 0.00 0.00 0.00 45 1012.9
20190424170641 66 219 14.0 29.0 0.00 0.00 0.00 45 1012.9
20190424165641 65 247 8.0 8.0 0.00 0.00 0.00 56 1013.5
20190424165141 65 233 8.0 8.0 0.00 0.00 0.00 56 1013.5
20190424164142 64 257 8.0 8.0 0.00 0.00 0.00 56 1013.5
20190424163141 64 252 8.0 8.0 0.00 0.00 0.00 56 1013.5